createdAt,value
2017-09-16T00:00:02.916Z,108.6
2017-09-16T00:05:02.365Z,108.89
2017-09-16T00:10:02.599Z,108.86
2017-09-16T00:15:02.861Z,108.83
2017-09-16T00:20:02.828Z,109.28
2017-09-16T00:25:03.026Z,109.27
2017-09-16T00:30:02.216Z,109.08
2017-09-16T00:35:02.810Z,108.97
2017-09-16T00:40:03.018Z,108.81
2017-09-16T00:45:02.256Z,108.83
2017-09-16T00:50:02.746Z,108.67
2017-09-16T00:55:03.008Z,108.86
2017-09-16T01:00:02.228Z,108.77
2017-09-16T01:05:02.983Z,109.17
2017-09-16T01:10:02.197Z,109.15
2017-09-16T01:15:02.447Z,109.23
2017-09-16T01:20:02.137Z,109.06
2017-09-16T01:25:02.395Z,109.84
2017-09-16T01:30:02.630Z,109.83
2017-09-16T01:35:02.353Z,110.16
2017-09-16T01:40:02.572Z,110.02
2017-09-16T01:45:02.812Z,109.57
2017-09-16T01:50:02.462Z,109.54
2017-09-16T01:55:02.748Z,109.48
2017-09-16T02:00:02.959Z,109.67
2017-09-16T02:05:02.891Z,109.76
2017-09-16T02:10:02.055Z,109.57
2017-09-16T02:15:02.306Z,109.63
2017-09-16T02:20:02.281Z,109.57
2017-09-16T02:25:02.492Z,109.79
2017-09-16T02:30:02.693Z,109.35
2017-09-16T02:35:02.569Z,109.67
2017-09-16T02:40:02.774Z,109.76
2017-09-16T02:45:03.018Z,109.59
2017-09-16T02:50:02.164Z,109.89
2017-09-16T02:55:02.377Z,109.87
2017-09-16T03:00:02.611Z,109.8
2017-09-16T03:05:02.276Z,109.47
2017-09-16T03:10:02.504Z,108.99
2017-09-16T03:15:02.681Z,108.91
2017-09-16T03:20:02.222Z,108.77
2017-09-16T03:25:02.484Z,109.09
2017-09-16T03:30:02.650Z,109.94
2017-09-16T03:35:02.844Z,110.05
2017-09-16T03:40:02.057Z,110.08
2017-09-16T03:45:02.323Z,109.8
2017-09-16T03:50:02.426Z,110.31
2017-09-16T03:55:02.658Z,110.14
2017-09-16T04:00:02.826Z,109.48
2017-09-16T04:05:02.606Z,109.15
2017-09-16T04:10:02.796Z,109.96
2017-09-16T04:15:02.989Z,110.55
2017-09-16T04:20:02.161Z,110.48
2017-09-16T04:25:02.376Z,110.53
2017-09-16T04:30:02.617Z,110.38
2017-09-16T04:35:02.994Z,110.5
2017-09-16T04:40:02.228Z,110.89
2017-09-16T04:45:02.445Z,111.1
2017-09-16T04:50:02.668Z,110.77
2017-09-16T04:55:02.853Z,110.72
2017-09-16T05:00:01.999Z,110.89
2017-09-16T05:05:03.017Z,111.02
2017-09-16T05:10:02.240Z,110.49
2017-09-16T05:15:02.471Z,110.83
2017-09-16T05:20:02.819Z,110.79
2017-09-16T05:25:02.030Z,110.88
2017-09-16T05:30:02.232Z,110.56
2017-09-16T05:35:02.468Z,110.71
2017-09-16T05:40:02.668Z,110.94
2017-09-16T05:45:02.894Z,110.73
2017-09-16T05:50:02.581Z,110.78
2017-09-16T05:55:02.756Z,110.71
2017-09-16T06:00:02.972Z,111.25
2017-09-16T06:05:02.744Z,111.03
2017-09-16T06:10:02.957Z,111.19
2017-09-16T06:15:02.191Z,111.22
2017-09-16T06:20:02.654Z,111.12
2017-09-16T06:25:02.849Z,111.15
2017-09-16T06:30:02.009Z,111.63
2017-09-16T06:35:02.363Z,111.32
2017-09-16T06:40:02.568Z,110.93
2017-09-16T06:45:02.817Z,111.57
2017-09-16T06:50:02.925Z,111.89
2017-09-16T06:55:02.109Z,111.83
2017-09-16T07:00:02.299Z,111.53
2017-09-16T07:05:02.277Z,111.73
2017-09-16T07:10:02.494Z,111.12
2017-09-16T07:15:02.687Z,110.91
2017-09-16T07:20:02.680Z,110.34
2017-09-16T07:25:02.908Z,110.37
2017-09-16T07:30:02.076Z,109.76
2017-09-16T07:35:02.278Z,110.01
2017-09-16T07:40:02.477Z,109.58
2017-09-16T07:45:02.632Z,109.34
2017-09-16T07:50:02.540Z,109.25
2017-09-16T07:55:02.716Z,108.19
2017-09-16T08:00:02.918Z,109.02
2017-09-16T08:05:02.602Z,108.64
2017-09-16T08:10:02.863Z,108.63
2017-09-16T08:15:02.057Z,109.57
2017-09-16T08:20:02.781Z,109.02
2017-09-16T08:25:02.955Z,107.76
2017-09-16T08:30:02.176Z,107.57
2017-09-16T08:35:02.541Z,106.66
2017-09-16T08:40:02.721Z,107.71
2017-09-16T08:45:02.938Z,107.46
2017-09-16T08:50:02.895Z,107.19
2017-09-16T08:55:02.067Z,106.65
2017-09-16T09:00:02.276Z,106.29
2017-09-16T09:05:02.527Z,105.34
2017-09-16T09:10:02.754Z,104.07
2017-09-16T09:15:02.931Z,104.32
2017-09-16T09:20:02.175Z,101.72
2017-09-16T09:25:02.376Z,100.37
2017-09-16T09:30:02.561Z,98.11
2017-09-16T09:35:02.142Z,95.54
2017-09-16T09:40:02.381Z,94.81
2017-09-16T09:45:02.619Z,95.66
2017-09-16T09:50:02.845Z,95.66
2017-09-16T09:55:02.050Z,94.32
2017-09-16T10:00:02.265Z,94.42
2017-09-16T10:05:02.369Z,94.48
2017-09-16T10:10:02.542Z,95.83
2017-09-16T10:15:02.799Z,93.11
2017-09-16T10:20:02.151Z,94.64
2017-09-16T10:25:02.341Z,90.87
2017-09-16T10:30:02.536Z,93.61
2017-09-16T10:35:02.038Z,92.61
2017-09-16T10:40:02.232Z,91.71
2017-09-16T10:45:02.428Z,94.53
2017-09-16T10:50:02.676Z,89.21
2017-09-16T10:55:02.850Z,92.06
2017-09-16T11:00:02.061Z,89.99
2017-09-16T11:05:02.707Z,88.95
2017-09-16T11:10:02.884Z,88.99
2017-09-16T11:15:02.126Z,87.33
2017-09-16T11:20:02.534Z,86.49
2017-09-16T11:25:02.819Z,87.28
2017-09-16T11:30:02.971Z,89.2
2017-09-16T11:35:02.129Z,88.23
2017-09-16T11:40:02.368Z,86.68
2017-09-16T11:45:02.529Z,87.17
2017-09-16T11:50:02.430Z,87.2
2017-09-16T11:55:02.643Z,83.56
2017-09-16T12:00:02.823Z,83.15
2017-09-16T12:05:03.045Z,83.58
2017-09-16T12:10:02.236Z,82.47
2017-09-16T12:15:02.396Z,83.81
2017-09-16T12:20:02.262Z,81.7
2017-09-16T12:25:02.535Z,82.44
2017-09-16T12:30:02.708Z,81.32
2017-09-16T12:35:02.321Z,78.54
2017-09-16T12:40:02.519Z,77.29
2017-09-16T12:45:02.731Z,79.53
2017-09-16T12:50:02.633Z,82.74
2017-09-16T12:55:02.862Z,82.99
2017-09-16T13:00:02.069Z,81.59
2017-09-16T13:05:02.670Z,82.23
2017-09-16T13:10:02.915Z,80.49
2017-09-16T13:15:02.212Z,77.43
2017-09-16T13:20:02.597Z,80.57
2017-09-16T13:25:02.863Z,80.36
2017-09-16T13:30:02.041Z,77.11
2017-09-16T13:35:02.306Z,76.8
2017-09-16T13:40:02.544Z,80.25
2017-09-16T13:45:02.748Z,78.05
2017-09-16T13:50:02.908Z,76.62
2017-09-16T13:55:02.079Z,78.6
2017-09-16T14:00:02.357Z,79.1
2017-09-16T14:05:03.022Z,79.21
2017-09-16T14:10:02.195Z,83.19
2017-09-16T14:15:02.451Z,79.7
2017-09-16T14:20:02.191Z,79.51
2017-09-16T14:25:02.428Z,79.87
2017-09-16T14:30:02.714Z,77.52
2017-09-16T14:35:02.535Z,77.23
2017-09-16T14:40:02.759Z,79.87
2017-09-16T14:45:03.207Z,79.91
2017-09-16T14:50:02.476Z,79.78
2017-09-16T14:55:02.728Z,77.6
2017-09-16T15:00:02.952Z,78.91
2017-09-16T15:05:02.129Z,78.11
2017-09-16T15:10:02.427Z,76.7
2017-09-16T15:15:02.584Z,76.91
2017-09-16T15:20:02.413Z,77.12
2017-09-16T15:25:02.635Z,78.59
2017-09-16T15:30:02.829Z,78.42
2017-09-16T15:35:02.114Z,79.03
2017-09-16T15:40:02.324Z,80.24
2017-09-16T15:45:02.639Z,81.17
2017-09-16T15:50:02.503Z,79.78
2017-09-16T15:55:02.763Z,80.34
2017-09-16T16:00:02.920Z,81.99
2017-09-16T16:05:02.745Z,80.29
2017-09-16T16:10:02.989Z,78.21
2017-09-16T16:15:02.180Z,79.95
2017-09-16T16:20:02.436Z,80.96
2017-09-16T16:25:02.648Z,83.84
2017-09-16T16:30:02.858Z,85.18
2017-09-16T16:35:03.021Z,86.85
2017-09-16T16:40:02.330Z,88.32
2017-09-16T16:45:02.577Z,89.13
2017-09-16T16:50:02.493Z,90.37
2017-09-16T16:55:02.758Z,91.01
2017-09-16T17:00:02.998Z,90.37
2017-09-16T17:05:02.165Z,90.54
2017-09-16T17:10:02.400Z,92.01
2017-09-16T17:15:02.601Z,91.85
2017-09-16T17:20:02.632Z,91.43
2017-09-16T17:25:02.843Z,92.7
2017-09-16T17:30:01.995Z,92.27
2017-09-16T17:35:02.650Z,92.54
2017-09-16T17:40:02.872Z,92.47
2017-09-16T17:45:02.085Z,93.18
2017-09-16T17:50:02.281Z,95.09
2017-09-16T17:55:02.500Z,94.49
2017-09-16T18:00:02.721Z,94.98
2017-09-16T18:05:02.394Z,96.95
2017-09-16T18:10:02.587Z,97.39
2017-09-16T18:15:02.816Z,97.86
2017-09-16T18:20:02.592Z,97.82
2017-09-16T18:25:02.784Z,98.3
2017-09-16T18:30:03.022Z,98.88
2017-09-16T18:35:02.783Z,98.47
2017-09-16T18:40:02.982Z,99.75
2017-09-16T18:45:02.193Z,99.97
2017-09-16T18:50:02.539Z,99.7
2017-09-16T18:55:02.763Z,100.46
2017-09-16T19:00:02.971Z,101.04
2017-09-16T19:05:02.745Z,100.64
2017-09-16T19:10:02.955Z,100.18
2017-09-16T19:15:02.218Z,100.83
2017-09-16T19:20:02.926Z,101.65
2017-09-16T19:25:02.124Z,101.82
2017-09-16T19:30:02.399Z,102.17
2017-09-16T19:35:02.245Z,102.88
2017-09-16T19:40:02.464Z,102.8
2017-09-16T19:45:02.676Z,102.65
2017-09-16T19:50:02.853Z,103.2
2017-09-16T19:55:02.086Z,103.32
2017-09-16T20:00:02.284Z,103.32
2017-09-16T20:05:02.716Z,103.69
2017-09-16T20:10:02.900Z,103
2017-09-16T20:15:02.088Z,103.01
2017-09-16T20:20:02.652Z,102.98
2017-09-16T20:25:02.843Z,103.71
2017-09-16T20:30:02.076Z,103.15
2017-09-16T20:35:02.811Z,103.78
2017-09-16T20:40:02.982Z,104.08
2017-09-16T20:45:02.234Z,103.94
2017-09-16T20:50:02.906Z,104.02
2017-09-16T20:55:02.162Z,103.94
2017-09-16T21:00:02.354Z,103.75
2017-09-16T21:05:02.553Z,104.22
2017-09-16T21:10:02.730Z,104.75
2017-09-16T21:15:02.956Z,104.81
2017-09-16T21:20:02.312Z,104.94
2017-09-16T21:25:02.495Z,104.58
2017-09-16T21:30:02.694Z,104.49
2017-09-16T21:35:02.888Z,104.97
2017-09-16T21:40:02.089Z,104.66
2017-09-16T21:45:02.342Z,104.71
2017-09-16T21:50:02.788Z,104.61
2017-09-16T21:55:02.972Z,105.05
2017-09-16T22:00:02.546Z,105.55
2017-09-16T22:05:02.887Z,105.83
2017-09-16T22:10:02.257Z,105.89
2017-09-16T22:15:02.602Z,106.21
2017-09-16T22:20:02.190Z,105.82
2017-09-16T22:25:02.627Z,105.73
2017-09-16T22:30:03.027Z,105.37
2017-09-16T22:35:02.278Z,105.62
2017-09-16T22:40:02.609Z,105.53
2017-09-16T22:45:02.960Z,105.4
2017-09-16T22:50:02.069Z,105.84
2017-09-16T22:55:02.512Z,105.87
2017-09-16T23:00:02.869Z,105.98
2017-09-16T23:05:02.275Z,106.12
2017-09-16T23:10:02.509Z,106.19
2017-09-16T23:15:02.715Z,106.5
2017-09-16T23:20:02.339Z,105.71
2017-09-16T23:25:02.574Z,105.5
2017-09-16T23:30:02.739Z,104.9
2017-09-16T23:35:02.927Z,105.13
2017-09-16T23:40:02.204Z,105.9
2017-09-16T23:45:02.386Z,106.82
2017-09-16T23:50:02.492Z,106.54
2017-09-16T23:55:02.719Z,106.79
